Terminal Aerodrome Forecast
Issued by NWS

Home | Current Version | Previous Version | Text Only | Print | Product List | Glossary On
Versions: 1 2 3 4 5 6 7 8 9 10 11 12 13 14 15 16 17 18 19 20 21
849
FTUS42 KFFC 231346 AAA
TAFFTY
TAF AMD
KFTY 231346Z 2314/2412 06004KT P6SM SKC
      TEMPO 2314/2315 4SM BR SCT008
     FM231500 09006KT P6SM SCT035
     FM231900 12007KT P6SM SCT050
     FM240000 12003KT P6SM FEW250
     FM240600 12003KT P6SM SCT040=

USA.gov is the U.S. government's official web portal to all federal, state and local government web resources and services.